Time;durP1;ratioP1;P1;durP2;ratioP2;P2;SDS_P1;SDS_P2;PMS_P1;PMS_P2;Temp;Humidity;BMP_temperature;BMP_pressure;BME280_temperature;BME280_humidity;BME280_pressure;Samples;Min_cycle;Max_cycle;Signal;HPM_P1;HPM_P2
2022/01/25 00:09:14;;;;;;;11.52;7.97;;;4.90;78.60;;;3.90;64.87;96331.06;4686752;30;20236;-87
2022/01/25 00:25:57;;;;;;;13.45;8.85;;;4.90;78.70;;;3.89;65.07;96326.00;4698513;30;20260;-86
2022/01/25 00:31:10;;;;;;;12.40;8.98;;;4.90;78.70;;;3.89;65.08;96318.19;4697869;30;20216;-87
2022/01/25 00:33:41;;;;;;;12.57;8.75;;;4.90;78.80;;;3.85;64.94;96308.03;4685413;30;20256;-87
2022/01/25 00:36:13;;;;;;;14.50;9.82;;;4.90;78.70;;;3.86;64.97;96314.06;4698452;30;20221;-88
2022/01/25 00:38:40;;;;;;;14.02;9.73;;;4.90;78.70;;;3.86;65.02;96308.88;4700734;30;20296;-87
2022/01/25 00:41:08;;;;;;;12.75;9.43;;;4.90;78.70;;;3.82;64.86;96305.69;4701065;30;20308;-87
2022/01/25 00:43:35;;;;;;;12.50;8.63;;;4.90;78.70;;;3.87;65.11;96310.53;4700968;30;20217;-86
2022/01/25 00:46:07;;;;;;;15.27;8.68;;;4.80;78.70;;;3.87;64.78;96307.94;4670160;30;20239;-87
2022/01/25 00:54:26;;;;;;;14.75;9.68;;;4.90;78.80;;;3.84;64.95;96301.22;4686837;30;20260;-87
2022/01/25 00:56:54;;;;;;;12.55;8.98;;;4.80;78.70;;;3.85;65.24;96295.06;4686818;30;20220;-87
2022/01/25 00:59:29;;;;;;;13.05;9.65;;;4.90;78.70;;;3.83;65.04;96302.16;4701030;30;20233;-87
2022/01/25 01:02:03;;;;;;;14.88;9.45;;;4.90;78.80;;;3.75;65.07;96291.50;4672837;30;20220;-87
2022/01/25 01:04:32;;;;;;;13.18;9.63;;;4.80;78.70;;;3.78;65.14;96293.06;4701048;30;20263;-86
2022/01/25 01:07:06;;;;;;;11.93;8.90;;;4.80;78.70;;;3.82;65.11;96300.50;4672325;30;20283;-87
2022/01/25 01:09:37;;;;;;;12.23;8.75;;;4.80;78.70;;;3.82;65.18;96291.88;4686393;30;20307;-87
2022/01/25 01:12:14;;;;;;;12.05;9.50;;;4.80;78.80;;;3.78;65.05;96293.06;4671310;30;20238;-88
2022/01/25 01:31:00;;;;;;;11.65;8.95;;;4.80;78.80;;;3.69;64.90;96281.59;4685879;30;20236;-87
2022/01/25 01:44:10;;;;;;;10.25;7.90;;;4.70;78.80;;;3.69;65.54;96279.81;4700320;30;20260;-87
2022/01/25 01:46:56;;;;;;;10.32;7.82;;;4.70;78.90;;;3.71;65.08;96279.72;4686190;30;20237;-87
2022/01/25 01:49:25;;;;;;;10.32;8.10;;;4.70;78.90;;;3.68;65.33;96272.16;4672941;30;20268;-87
2022/01/25 01:51:52;;;;;;;12.63;8.48;;;4.70;78.90;;;3.69;65.45;96266.03;4686514;30;20217;-87
2022/01/25 01:54:19;;;;;;;11.15;8.65;;;4.70;78.90;;;3.64;65.29;96262.97;4686400;30;20244;-87
2022/01/25 01:56:46;;;;;;;11.05;8.43;;;4.70;78.90;;;3.66;65.23;96268.84;4700351;30;20304;-87
2022/01/25 01:59:16;;;;;;;11.30;7.57;;;4.70;78.90;;;3.68;65.08;96266.97;4700162;30;20279;-87
2022/01/25 02:01:46;;;;;;;9.52;7.55;;;4.70;78.90;;;3.67;64.99;96268.75;4686575;30;20213;-87
2022/01/25 02:04:16;;;;;;;10.63;7.35;;;4.70;78.80;;;3.70;65.07;96267.69;4685466;30;20233;-88
2022/01/25 02:06:44;;;;;;;9.82;6.85;;;4.70;78.90;;;3.72;65.44;96270.97;4700275;30;20323;-87
2022/01/25 02:09:12;;;;;;;10.88;7.97;;;4.70;79.00;;;3.66;65.23;96258.47;4699340;30;20236;-88
2022/01/25 02:11:41;;;;;;;12.40;8.10;;;4.70;79.00;;;3.69;65.48;96260.84;4686308;30;20481;-87
2022/01/25 02:14:12;;;;;;;12.00;8.00;;;4.70;79.00;;;3.72;65.24;96267.56;4685392;30;20229;-87
2022/01/25 02:22:32;;;;;;;10.35;7.15;;;4.70;78.90;;;3.71;65.33;96261.56;4684835;30;20216;-87
2022/01/25 02:25:00;;;;;;;10.60;7.30;;;4.70;78.90;;;3.64;65.29;96248.22;4685352;30;20272;-86
2022/01/25 02:27:27;;;;;;;12.02;8.13;;;4.70;79.00;;;3.70;65.48;96259.91;4686063;30;20700;-87
2022/01/25 02:29:54;;;;;;;10.82;7.95;;;4.70;78.90;;;3.71;65.49;96264.16;4683597;30;20297;-87
2022/01/25 02:32:21;;;;;;;14.30;8.38;;;4.70;78.90;;;3.69;65.26;96260.84;4670968;30;20237;-87
2022/01/25 02:34:48;;;;;;;10.77;7.38;;;4.70;79.00;;;3.69;65.09;96261.66;4685195;30;20249;-87
2022/01/25 02:37:16;;;;;;;10.80;7.78;;;4.60;78.90;;;3.64;65.44;96250.81;4700134;30;20240;-87
2022/01/25 02:39:44;;;;;;;10.77;7.57;;;4.70;79.00;;;3.71;65.31;96258.97;4684476;30;20657;-88
2022/01/25 02:42:16;;;;;;;10.50;7.75;;;4.70;79.00;;;3.67;65.15;96245.41;4685406;30;20299;-87
2022/01/25 02:44:44;;;;;;;10.32;7.28;;;4.70;79.00;;;3.66;65.24;96237.72;4685234;30;20244;-87
2022/01/25 02:49:58;;;;;;;11.75;8.73;;;4.70;79.00;;;3.69;65.35;96253.06;4698955;30;20295;-87
2022/01/25 02:52:27;;;;;;;12.32;8.50;;;4.70;79.00;;;3.60;65.36;96251.16;4685401;30;20215;-87
2022/01/25 02:54:54;;;;;;;13.07;8.80;;;4.70;79.00;;;3.60;65.52;96257.19;4684557;30;20233;-88
2022/01/25 02:57:22;;;;;;;13.32;8.30;;;4.70;78.90;;;3.62;65.35;96251.88;4670662;30;20589;-87
2022/01/25 02:59:50;;;;;;;9.63;6.88;;;4.60;78.90;;;3.63;65.33;96246.56;4698831;30;20256;-88
2022/01/25 03:02:18;;;;;;;10.27;7.55;;;4.60;79.00;;;3.63;65.33;96241.38;4684366;30;20304;-87
2022/01/25 03:04:45;;;;;;;10.45;7.57;;;4.60;79.00;;;3.64;65.26;96243.03;4671114;30;20243;-87
2022/01/25 03:07:12;;;;;;;12.65;8.35;;;4.60;79.00;;;3.68;65.31;96241.03;4684957;30;20649;-87
2022/01/25 03:09:40;;;;;;;13.13;8.30;;;4.60;79.10;;;3.67;65.31;96232.44;4698796;30;20649;-87
2022/01/25 03:12:12;;;;;;;13.88;8.85;;;4.60;79.10;;;3.65;65.48;96249.03;4699741;30;20271;-87
2022/01/25 03:14:58;;;;;;;15.35;9.75;;;4.60;79.10;;;3.62;65.25;96247.50;4685028;30;20256;-87
2022/01/25 03:17:29;;;;;;;11.10;8.10;;;4.60;79.00;;;3.54;65.48;96236.88;4699625;30;20224;-87
2022/01/25 03:20:06;;;;;;;12.32;8.40;;;4.60;79.00;;;3.59;65.40;96242.53;4669246;30;20314;-87
2022/01/25 03:25:32;;;;;;;10.02;7.13;;;4.60;79.00;;;3.52;65.29;96241.34;4688561;30;20244;-87
2022/01/25 03:28:00;;;;;;;11.38;7.40;;;4.60;79.00;;;3.47;65.31;96239.09;4684798;30;20334;-87
2022/01/25 03:30:27;;;;;;;11.93;7.57;;;4.60;79.00;;;3.50;65.53;96245.81;4684263;30;20225;-86
2022/01/25 03:32:55;;;;;;;9.07;6.78;;;4.60;79.00;;;3.50;65.42;96233.69;4698939;30;20223;-87
2022/01/25 03:35:22;;;;;;;9.05;6.32;;;4.50;79.00;;;3.53;65.75;96240.41;4669883;30;20232;-87
2022/01/25 03:37:49;;;;;;;9.45;6.28;;;4.50;79.10;;;3.55;65.77;96237.69;4670723;30;20303;-87
2022/01/25 03:40:17;;;;;;;10.68;6.93;;;4.50;79.20;;;3.58;65.49;96245.25;4683841;30;20235;-86
2022/01/25 03:42:45;;;;;;;9.43;6.57;;;4.50;79.20;;;3.59;65.50;96236.50;4699144;30;20213;-87
2022/01/25 03:45:19;;;;;;;11.25;7.57;;;4.50;79.20;;;3.54;65.46;96239.47;4684676;30;20244;-88
2022/01/25 03:49:47;;;;;;;10.68;7.25;;;4.60;79.30;;;3.60;65.16;96246.81;4698703;30;20229;-86
2022/01/25 03:50:48;;;;;;;9.82;6.85;;;4.60;79.20;;;3.60;65.67;96243.38;4684349;30;20276;-87
2022/01/25 03:53:18;;;;;;;9.68;6.90;;;4.60;79.20;;;3.62;65.39;96238.88;4684228;30;20213;-86
2022/01/25 03:55:47;;;;;;;9.85;6.93;;;4.50;79.20;;;3.61;65.38;96232.03;4683705;30;20237;-86
2022/01/25 03:58:15;;;;;;;11.75;7.68;;;4.60;79.20;;;3.60;65.71;96227.78;4684168;30;20224;-86
2022/01/25 04:00:45;;;;;;;10.80;7.72;;;4.60;79.20;;;3.53;65.58;96217.06;4684418;30;20237;-85
2022/01/25 04:03:25;;;;;;;9.70;6.78;;;4.60;79.10;;;3.45;65.89;96204.66;4698215;30;20217;-86
2022/01/25 04:05:55;;;;;;;10.02;6.75;;;4.60;79.10;;;3.55;65.47;96214.34;4671245;30;20725;-87
2022/01/25 04:08:22;;;;;;;10.27;7.05;;;4.60;79.10;;;3.46;65.68;96203.72;4684692;30;20271;-87
2022/01/25 04:10:49;;;;;;;9.05;6.28;;;4.60;79.10;;;3.55;65.69;96209.16;4670028;30;20237;-87
2022/01/25 04:13:18;;;;;;;10.48;7.55;;;4.50;79.10;;;3.51;65.50;96205.97;4685492;30;20212;-86
2022/01/25 04:15:46;;;;;;;8.95;6.85;;;4.50;79.10;;;3.46;65.79;96192.53;4687774;30;20275;-86
2022/01/25 04:21:03;;;;;;;9.80;6.95;;;4.50;79.10;;;3.51;65.40;96193.81;4701219;30;20243;-87
2022/01/25 04:26:16;;;;;;;11.43;7.85;;;4.50;79.20;;;3.52;65.76;96205.03;4675577;30;20249;-87
2022/01/25 04:28:44;;;;;;;12.18;7.72;;;4.50;79.60;;;3.52;65.62;96205.03;4672748;30;20247;-87
2022/01/25 04:31:11;;;;;;;9.55;6.68;;;4.50;79.20;;;3.50;65.31;96192.19;4687049;30;20240;-86
2022/01/25 04:33:42;;;;;;;10.05;7.40;;;4.50;79.20;;;3.53;65.42;96196.31;4687647;30;20217;-87
2022/01/25 04:49:57;;;;;;;9.90;7.43;;;4.50;79.20;;;3.45;65.92;96189.09;4697251;30;20237;-86
2022/01/25 04:52:30;;;;;;;10.77;7.50;;;4.50;79.20;;;3.46;65.94;96189.94;4701355;30;20225;-86
2022/01/25 04:55:16;;;;;;;12.02;7.78;;;4.50;79.20;;;3.40;65.74;96172.25;4687333;30;20240;-86
2022/01/25 04:57:50;;;;;;;11.50;7.72;;;4.50;79.20;;;3.41;66.12;96179.09;4674282;30;20239;-87
2022/01/25 05:00:21;;;;;;;11.80;8.15;;;4.50;79.20;;;3.44;65.76;96176.25;4699056;30;20744;-85
2022/01/25 05:02:54;;;;;;;12.95;8.10;;;4.50;79.20;;;3.43;65.73;96175.44;4700593;30;20330;-86
2022/01/25 05:05:30;;;;;;;11.23;7.22;;;4.50;79.30;;;3.41;65.94;96166.13;4700483;30;20248;-85
2022/01/25 05:08:19;;;;;;;11.18;7.68;;;4.40;79.20;;;3.45;65.80;96165.75;4688148;30;20290;-87
2022/01/25 05:10:52;;;;;;;13.00;7.75;;;4.40;79.30;;;3.45;65.60;96164.94;4686541;30;20229;-87
2022/01/25 05:16:14;;;;;;;14.13;8.82;;;4.40;79.30;;;3.38;65.73;96163.75;4701162;30;20224;-87
2022/01/25 05:18:49;;;;;;;14.70;8.73;;;4.50;79.30;;;3.38;66.27;96167.16;4671861;30;20669;-87
2022/01/25 05:24:01;;;;;;;12.60;8.43;;;4.50;79.40;;;3.36;65.80;96172.47;4688088;30;20287;-87
2022/01/25 05:26:28;;;;;;;12.93;8.40;;;4.50;79.40;;;3.35;66.02;96162.22;4686623;30;20296;-87
2022/01/25 05:28:58;;;;;;;13.35;8.50;;;4.40;79.30;;;3.38;66.23;96154.19;4686610;30;20236;-88
2022/01/25 05:31:26;;;;;;;14.50;8.48;;;4.40;79.30;;;3.40;66.05;96154.09;4686734;30;20275;-87
2022/01/25 05:33:53;;;;;;;16.33;9.80;;;4.40;79.30;;;3.34;66.02;96156.22;4672406;30;20256;-86
2022/01/25 05:36:24;;;;;;;14.35;8.70;;;4.40;79.40;;;3.33;66.06;96146.78;4686138;30;20311;-86
2022/01/25 05:38:55;;;;;;;12.95;8.68;;;4.40;79.30;;;3.33;66.17;96148.53;4701072;30;20224;-87
2022/01/25 05:41:27;;;;;;;13.00;8.20;;;4.40;79.30;;;3.38;66.13;96149.00;4672322;30;20228;-87
2022/01/25 05:46:32;;;;;;;13.63;8.98;;;4.40;79.40;;;3.38;66.13;96145.59;4700047;30;20217;-86
2022/01/25 05:49:00;;;;;;;12.73;8.55;;;4.40;79.40;;;3.31;66.11;96140.88;4687017;30;20268;-87
2022/01/25 05:51:27;;;;;;;13.20;8.35;;;4.40;79.50;;;3.33;65.97;96141.59;4686387;30;20208;-87
2022/01/25 05:53:55;;;;;;;12.30;8.48;;;4.40;80.30;;;3.41;66.10;96153.97;4686349;30;20245;-87
2022/01/25 05:56:22;;;;;;;13.57;8.57;;;4.40;79.50;;;3.46;65.85;96151.03;4700691;30;20308;-87
2022/01/25 05:58:49;;;;;;;11.55;7.72;;;4.40;79.60;;;3.47;65.92;96150.91;4700571;30;20332;-87
2022/01/25 06:01:20;;;;;;;14.00;8.88;;;4.40;79.50;;;3.49;65.86;96148.19;4686321;30;20272;-87
2022/01/25 06:03:47;;;;;;;14.80;8.65;;;4.40;79.60;;;3.40;65.75;96139.34;4699832;30;20804;-87
2022/01/25 06:06:15;;;;;;;13.35;8.98;;;4.40;79.50;;;3.48;66.09;96149.97;4672225;30;20219;-88
2022/01/25 06:08:42;;;;;;;13.57;9.00;;;4.50;79.60;;;3.50;65.62;96152.44;4671980;30;20220;-87
2022/01/25 06:11:10;;;;;;;13.98;9.15;;;4.40;79.40;;;3.49;65.82;96143.00;4672152;30;20250;-87
2022/01/25 06:13:37;;;;;;;12.95;9.15;;;4.40;79.50;;;3.46;65.86;96149.25;4700647;30;20271;-87
2022/01/25 06:16:04;;;;;;;13.05;8.68;;;4.50;79.50;;;3.42;65.76;96129.69;4700629;30;20664;-87
2022/01/25 06:18:32;;;;;;;14.45;9.43;;;4.50;79.50;;;3.43;65.70;96136.53;4700673;30;20231;-87
2022/01/25 06:20:59;;;;;;;13.13;8.95;;;4.40;79.40;;;3.43;65.46;96133.09;4685840;30;20260;-87
2022/01/25 06:23:26;;;;;;;15.63;9.93;;;4.40;79.40;;;3.45;66.13;96134.63;4699621;30;20216;-87
2022/01/25 06:25:53;;;;;;;13.93;8.88;;;4.40;79.50;;;3.45;65.80;96133.81;4686149;30;20271;-87
2022/01/25 06:28:20;;;;;;;14.65;9.40;;;4.50;79.50;;;3.44;65.92;96133.00;4700206;30;20295;-87
2022/01/25 06:30:48;;;;;;;14.15;9.07;;;4.40;79.50;;;3.41;65.95;96133.22;4685923;30;20772;-87
2022/01/25 06:33:16;;;;;;;15.57;9.00;;;4.40;79.50;;;3.41;66.12;96141.00;4671678;30;20216;-87
2022/01/25 06:35:47;;;;;;;15.43;8.93;;;4.40;79.60;;;3.49;65.82;96156.81;4685379;30;20237;-87
2022/01/25 06:38:14;;;;;;;15.35;10.48;;;4.40;79.60;;;3.44;65.70;96153.75;4685583;30;20252;-87
2022/01/25 06:40:41;;;;;;;17.27;11.02;;;4.40;79.50;;;3.45;66.06;96146.78;4670483;30;20275;-87
2022/01/25 06:43:09;;;;;;;14.63;10.23;;;4.50;79.50;;;3.43;66.03;96146.06;4671241;30;20692;-87
2022/01/25 06:45:40;;;;;;;14.13;9.63;;;4.50;79.50;;;3.37;65.92;96149.97;4685363;30;20328;-87
2022/01/25 06:48:09;;;;;;;16.38;10.30;;;4.40;79.40;;;3.38;65.97;96154.19;4685502;30;20732;-87
2022/01/25 06:50:36;;;;;;;17.55;10.77;;;4.40;79.40;;;3.39;65.78;96163.63;4699803;30;20240;-87
2022/01/25 06:53:04;;;;;;;16.50;10.23;;;4.40;79.40;;;3.38;65.99;96161.16;4685520;30;20267;-87
2022/01/25 06:55:40;;;;;;;17.15;10.60;;;4.40;79.40;;;3.38;66.17;96161.97;4699653;30;20236;-86
2022/01/25 06:58:08;;;;;;;16.65;10.93;;;4.40;79.40;;;3.40;66.07;96167.06;4684394;30;20220;-86
2022/01/25 07:00:36;;;;;;;17.45;10.13;;;4.40;79.40;;;3.40;66.12;96169.66;4684865;30;20244;-87
2022/01/25 07:03:04;;;;;;;14.32;9.20;;;4.40;79.50;;;3.41;66.05;96177.31;4670979;30;20213;-87
2022/01/25 07:05:33;;;;;;;17.98;10.60;;;4.40;79.50;;;3.42;66.03;96176.38;4699436;30;20244;-87
2022/01/25 07:08:00;;;;;;;13.13;9.13;;;4.40;79.50;;;3.41;65.96;96185.09;4699802;30;20264;-87
2022/01/25 07:10:28;;;;;;;14.10;9.48;;;4.40;79.50;;;3.44;65.81;96181.44;4699021;30;20237;-86
2022/01/25 07:12:55;;;;;;;13.55;9.50;;;4.40;79.60;;;3.41;65.88;96177.31;4699527;30;20213;-87
2022/01/25 07:15:22;;;;;;;14.07;9.65;;;4.50;79.70;;;3.50;66.00;96186.16;4685138;30;20241;-87
2022/01/25 07:17:50;;;;;;;14.05;9.38;;;4.40;79.60;;;3.51;66.07;96180.03;4698734;30;20266;-87
2022/01/25 07:20:17;;;;;;;15.43;10.38;;;4.40;79.60;;;3.51;66.40;96173.06;4670997;30;20248;-87
2022/01/25 07:22:44;;;;;;;17.42;10.50;;;4.50;79.70;;;3.52;65.67;96174.72;4685093;30;20227;-87
2022/01/25 07:25:12;;;;;;;14.23;9.45;;;4.50;79.70;;;3.55;65.97;96180.63;4699299;30;20558;-86
2022/01/25 07:27:40;;;;;;;18.05;11.43;;;4.40;79.50;;;3.55;66.13;96172.84;4684239;30;20275;-88
2022/01/25 07:30:08;;;;;;;18.60;11.45;;;4.50;79.60;;;3.55;65.59;96185.81;4683653;30;20248;-87
2022/01/25 07:32:36;;;;;;;15.65;11.30;;;4.50;79.60;;;3.52;65.61;96195.47;4699083;30;20267;-86
2022/01/25 07:35:05;;;;;;;17.27;11.30;;;4.50;79.50;;;3.47;66.03;96173.44;4684946;30;20787;-87
2022/01/25 07:37:41;;;;;;;17.50;10.65;;;4.50;79.40;;;3.48;65.76;96178.50;4699164;30;20306;-87
2022/01/25 07:40:12;;;;;;;17.27;11.40;;;4.50;79.40;;;3.53;66.35;96184.16;4684697;30;20248;-86
2022/01/25 07:42:46;;;;;;;21.42;10.82;;;4.50;79.40;;;3.50;65.82;96183.56;4699126;30;20224;-87
2022/01/25 07:45:24;;;;;;;17.92;11.90;;;4.50;79.40;;;3.48;65.70;96175.09;4699101;30;20323;-86
2022/01/25 07:47:55;;;;;;;15.75;10.32;;;4.50;79.30;;;3.48;65.58;96182.88;4700867;30;20240;-87
2022/01/25 07:50:24;;;;;;;16.45;11.38;;;4.50;79.40;;;3.47;65.69;96183.81;4674271;30;20264;-86
2022/01/25 07:52:51;;;;;;;17.80;10.50;;;4.50;80.10;;;3.44;65.96;96182.28;4674277;30;20630;-86
2022/01/25 07:55:18;;;;;;;18.05;10.82;;;4.50;79.40;;;3.48;66.01;96183.69;4674162;30;20240;-86
2022/01/25 07:57:45;;;;;;;15.93;11.00;;;4.50;79.40;;;3.50;65.79;96178.38;4673106;30;20216;-86
2022/01/25 08:00:13;;;;;;;14.32;9.57;;;4.50;79.60;;;3.58;65.93;96183.00;4705226;30;20236;-87
2022/01/25 08:02:41;;;;;;;19.38;11.50;;;4.50;79.60;;;3.51;65.84;96170.47;4692269;30;20216;-86
2022/01/25 08:05:11;;;;;;;17.67;11.27;;;4.60;79.60;;;3.53;65.75;96180.75;4673983;30;20291;-86
2022/01/25 08:07:44;;;;;;;13.93;9.70;;;4.60;79.50;;;3.58;65.84;96186.41;4687553;30;20335;-85
2022/01/25 08:10:17;;;;;;;13.60;9.82;;;4.50;79.40;;;3.57;65.62;96179.56;4687983;30;20295;-86
2022/01/25 08:12:47;;;;;;;14.20;9.40;;;4.60;79.50;;;3.66;65.88;96185.81;4688410;30;20719;-86
2022/01/25 08:15:17;;;;;;;13.77;9.57;;;4.60;79.60;;;3.69;65.82;96183.00;4687745;30;20236;-86
2022/01/25 08:17:45;;;;;;;15.55;10.35;;;4.60;79.60;;;3.68;65.68;96179.56;4675202;30;20221;-86
2022/01/25 08:20:22;;;;;;;15.20;10.70;;;4.60;79.60;;;3.68;65.47;96176.16;4701806;30;20334;-86
2022/01/25 08:22:50;;;;;;;22.25;10.90;;;4.60;79.60;;;3.72;65.72;96177.56;4673366;30;20285;-86
2022/01/25 08:25:27;;;;;;;15.52;10.65;;;4.70;79.50;;;3.74;65.68;96167.09;4688283;30;20229;-86
2022/01/25 08:27:56;;;;;;;16.67;9.50;;;4.70;79.50;;;3.73;65.59;96153.25;4704684;30;20286;-87
2022/01/25 08:30:26;;;;;;;18.02;10.57;;;4.70;79.50;;;3.79;65.72;96152.78;4699136;30;20287;-86
2022/01/25 08:32:57;;;;;;;16.45;11.23;;;4.70;79.50;;;3.80;65.64;96151.03;4673753;30;20228;-87
2022/01/25 08:35:43;;;;;;;17.70;11.77;;;4.70;79.50;;;3.78;65.50;96150.31;4689155;30;20237;-87
2022/01/25 08:38:10;;;;;;;17.45;10.57;;;4.70;79.50;;;3.78;65.39;96145.94;4701125;30;20752;-87
2022/01/25 08:40:39;;;;;;;15.90;11.05;;;4.70;79.50;;;3.82;65.54;96155.16;4700588;30;20233;-86
2022/01/25 08:43:06;;;;;;;15.40;9.95;;;4.70;79.40;;;3.83;65.58;96158.56;4672833;30;20213;-87
2022/01/25 08:45:43;;;;;;;16.80;10.07;;;4.80;79.50;;;3.83;65.88;96154.22;4705413;30;20267;-87
2022/01/25 08:48:21;;;;;;;16.35;10.65;;;4.80;79.60;;;3.88;65.39;96161.63;4705045;30;20282;-87
2022/01/25 08:50:58;;;;;;;18.00;11.50;;;4.80;79.50;;;3.87;65.61;96164.34;4688355;30;20221;-87
2022/01/25 08:53:34;;;;;;;16.50;10.18;;;4.80;79.40;;;3.94;65.06;96168.97;4695850;30;20223;-87
2022/01/25 08:56:05;;;;;;;18.15;11.68;;;4.80;79.40;;;3.95;65.43;96167.19;4719195;30;20337;-87
2022/01/25 08:58:35;;;;;;;16.73;10.73;;;4.80;79.40;;;3.99;65.22;96169.44;4688227;30;20219;-87
2022/01/25 09:01:03;;;;;;;22.17;13.38;;;4.80;79.50;;;3.97;65.01;96173.09;4687387;30;20217;-87
2022/01/25 09:03:31;;;;;;;20.85;13.63;;;4.90;79.40;;;3.89;64.81;96154.69;4687273;30;20233;-88
2022/01/25 09:05:58;;;;;;;19.83;12.02;;;4.90;79.20;;;3.90;65.09;96172.72;4687201;30;20244;-87
2022/01/25 09:08:28;;;;;;;19.05;12.57;;;4.90;79.30;;;3.90;65.34;96174.50;4701230;30;20232;-86
2022/01/25 09:11:02;;;;;;;17.95;11.80;;;4.90;79.30;;;3.97;65.37;96176.50;4686868;30;20241;-88
2022/01/25 09:13:31;;;;;;;22.38;13.82;;;4.90;79.30;;;3.91;65.28;96174.38;4699927;30;20217;-88
2022/01/25 09:16:00;;;;;;;19.60;13.23;;;4.90;79.30;;;3.96;65.68;96176.63;4687452;30;20225;-87
2022/01/25 09:18:28;;;;;;;19.40;13.15;;;4.90;79.30;;;3.93;65.39;96174.25;4686403;30;20281;-87
2022/01/25 09:20:56;;;;;;;23.40;14.45;;;4.90;79.30;;;3.97;65.19;96180.88;4672745;30;20213;-87
2022/01/25 09:23:24;;;;;;;25.08;15.68;;;4.90;79.20;;;3.93;65.25;96184.63;4672306;30;20220;-87
2022/01/25 09:25:52;;;;;;;20.98;13.55;;;4.90;79.10;;;3.90;65.37;96183.09;4672506;30;20228;-88
2022/01/25 09:28:19;;;;;;;20.38;12.25;;;4.90;79.20;;;3.91;65.34;96179.56;4685425;30;20239;-88
2022/01/25 09:30:47;;;;;;;22.55;14.55;;;4.90;79.30;;;3.93;65.21;96176.84;4686632;30;20323;-88
2022/01/25 09:33:24;;;;;;;22.45;14.00;;;4.90;79.30;;;3.94;65.52;96174.16;4684011;30;20286;-89
2022/01/25 09:35:53;;;;;;;25.05;14.52;;;4.90;79.20;;;3.95;65.01;96183.56;4671351;30;20232;-88
2022/01/25 09:38:22;;;;;;;21.83;14.77;;;5.00;79.20;;;3.95;64.87;96178.38;4680506;30;20241;-88
2022/01/25 09:40:51;;;;;;;23.42;14.57;;;4.90;79.10;;;3.85;65.08;96164.47;4685681;30;20241;-90
2022/01/25 09:43:20;;;;;;;22.42;13.93;;;4.90;79.20;;;3.89;65.24;96167.66;4686408;30;20208;-88
2022/01/25 09:45:48;;;;;;;22.35;14.48;;;4.90;79.20;;;4.01;65.21;96183.09;4673330;30;20590;-88
2022/01/25 09:48:16;;;;;;;20.83;13.85;;;4.90;79.30;;;4.03;65.32;96170.00;4705117;30;20244;-87
2022/01/25 09:50:44;;;;;;;23.23;14.68;;;4.90;80.10;;;3.98;65.18;96172.16;4655854;30;20228;-88
2022/01/25 09:53:11;;;;;;;19.92;13.57;;;4.90;79.30;;;4.08;65.28;96175.66;4711849;30;20274;-88
2022/01/25 09:55:42;;;;;;;25.50;15.98;;;4.90;79.30;;;4.07;65.12;96180.97;4702184;30;20299;-88
2022/01/25 09:58:14;;;;;;;26.42;15.60;;;5.00;79.30;;;4.06;65.11;96176.72;4671807;30;20213;-87
2022/01/25 10:00:46;;;;;;;25.55;15.68;;;5.00;79.20;;;4.07;65.03;96179.19;4685699;30;20236;-88
2022/01/25 10:03:39;;;;;;;22.48;13.82;;;5.00;79.10;;;4.06;65.19;96171.53;4694702;30;20299;-88
2022/01/25 10:06:17;;;;;;;22.75;15.55;;;5.00;79.20;;;4.08;64.83;96169.66;4703464;30;20278;-88
2022/01/25 10:08:45;;;;;;;21.58;14.32;;;5.00;79.10;;;4.08;65.13;96162.69;4685750;30;20311;-88
2022/01/25 10:11:16;;;;;;;25.55;14.73;;;5.00;79.10;;;4.13;65.15;96165.75;4679568;30;20240;-88
2022/01/25 10:13:48;;;;;;;24.65;15.60;;;5.00;79.90;;;4.15;64.96;96165.59;4684867;30;20208;-87
2022/01/25 10:16:28;;;;;;;27.67;17.00;;;5.00;79.20;;;4.11;64.77;96159.00;4685532;30;20224;-88
2022/01/25 10:19:07;;;;;;;27.02;16.77;;;5.10;79.00;;;4.11;64.75;96165.06;4698800;30;20331;-88
2022/01/25 10:21:48;;;;;;;25.88;17.15;;;5.10;79.80;;;4.06;65.01;96150.78;4684905;30;20208;-88
2022/01/25 10:24:27;;;;;;;26.67;16.63;;;5.10;78.90;;;4.05;64.70;96149.94;4695687;30;20239;-89
2022/01/25 10:26:56;;;;;;;27.77;17.38;;;5.10;78.90;;;4.00;64.78;96150.31;4714575;30;20212;-88
2022/01/25 10:29:31;;;;;;;25.73;16.45;;;5.10;78.80;;;3.98;64.69;96157.38;4685570;30;20307;-88
2022/01/25 10:32:09;;;;;;;27.13;16.50;;;5.10;78.80;;;3.97;64.96;96140.16;4698609;30;20219;-88
2022/01/25 10:34:45;;;;;;;26.70;16.85;;;5.00;78.80;;;3.95;64.69;96133.44;4699296;30;20244;-88
2022/01/25 10:37:21;;;;;;;28.10;18.15;;;5.00;78.80;;;3.90;64.81;96125.19;4697562;30;20222;-88
2022/01/25 10:39:52;;;;;;;29.23;17.83;;;5.00;78.70;;;3.95;64.68;96133.44;4681647;30;20251;-89
2022/01/25 10:42:27;;;;;;;28.05;17.73;;;5.00;78.80;;;3.92;64.77;96125.88;4683034;30;20308;-88
2022/01/25 10:45:04;;;;;;;25.25;16.50;;;5.00;78.80;;;3.90;64.74;96120.81;4680347;30;20240;-89
2022/01/25 10:47:49;;;;;;;27.95;17.30;;;5.00;78.80;;;3.97;64.85;96126.38;4682464;30;20224;-89
2022/01/25 10:50:35;;;;;;;27.05;16.48;;;4.90;78.70;;;3.98;65.14;96121.03;4681663;30;20646;-89
2022/01/25 10:53:10;;;;;;;25.73;17.45;;;5.00;78.90;;;4.06;65.08;96127.41;4668021;30;20205;-89
2022/01/25 10:55:51;;;;;;;28.02;17.67;;;5.00;79.00;;;4.04;64.59;96113.72;4681690;30;20629;-89
2022/01/25 10:58:19;;;;;;;25.13;16.80;;;5.00;78.90;;;3.99;64.65;96101.09;4697400;30;20215;-89
2022/01/25 11:00:51;;;;;;;28.10;17.77;;;5.10;79.00;;;4.04;64.49;96106.75;4667339;30;20229;-90
2022/01/25 11:03:41;;;;;;;24.80;15.52;;;5.10;78.90;;;4.05;64.55;96110.19;4697841;30;20252;-90
2022/01/25 11:06:16;;;;;;;26.55;17.38;;;5.10;78.90;;;3.98;64.63;96102.88;4699089;30;20219;-89
2022/01/25 11:08:47;;;;;;;30.10;17.65;;;5.00;78.70;;;3.92;64.82;96090.38;4699273;30;20247;-88
2022/01/25 11:11:32;;;;;;;24.25;15.93;;;5.00;78.70;;;4.00;64.94;96097.56;4685276;30;20231;-88
2022/01/25 11:14:50;;;;;;;25.48;16.83;;;5.00;78.80;;;3.99;64.86;96101.09;4685634;30;20326;-89
2022/01/25 11:16:51;;;;;;;21.90;14.32;;;5.00;78.70;;;3.93;65.02;96094.63;4699093;30;20278;-89
2022/01/25 11:19:21;;;;;;;28.25;15.98;;;5.00;78.80;;;3.97;64.84;96108.19;4671283;30;20247;-89
2022/01/25 11:21:50;;;;;;;22.30;14.52;;;5.00;78.70;;;3.91;64.72;96108.69;4684672;30;20232;-89
2022/01/25 11:24:20;;;;;;;21.80;13.95;;;5.00;78.60;;;3.81;64.67;96093.81;4685454;30;20745;-90
2022/01/25 11:26:50;;;;;;;19.42;12.95;;;5.00;78.60;;;3.86;64.94;96093.47;4684384;30;20216;-90
2022/01/25 11:29:17;;;;;;;21.55;12.80;;;4.90;78.50;;;3.88;65.26;96093.34;4698983;30;20751;-89
2022/01/25 11:31:53;;;;;;;23.23;13.10;;;4.90;78.70;;;3.84;65.11;96084.97;4670954;30;20224;-89
2022/01/25 11:34:26;;;;;;;20.92;13.60;;;4.90;78.70;;;3.81;64.96;96078.25;4670985;30;20248;-90
2022/01/25 11:37:01;;;;;;;21.63;14.45;;;4.90;78.80;;;3.86;64.78;96085.69;4685030;30;20699;-89
2022/01/25 11:39:30;;;;;;;19.48;12.90;;;4.90;78.70;;;3.90;65.25;96078.47;4681904;30;20332;-88
2022/01/25 11:42:18;;;;;;;23.67;14.07;;;4.90;78.80;;;3.82;64.69;96063.50;4682008;30;20272;-89
2022/01/25 11:44:57;;;;;;;21.65;12.75;;;4.90;78.70;;;3.90;64.57;96074.09;4667466;30;20253;-88
2022/01/25 11:47:35;;;;;;;20.42;13.02;;;4.90;78.70;;;3.89;64.81;96079.41;4699101;30;20213;-89
2022/01/25 11:50:11;;;;;;;19.52;12.43;;;4.90;78.70;;;3.91;64.83;96085.31;4684060;30;20251;-88
2022/01/25 11:52:55;;;;;;;19.65;11.88;;;4.90;78.80;;;3.92;64.74;96080.00;4685252;30;20585;-90
2022/01/25 11:55:41;;;;;;;20.63;12.10;;;4.90;78.80;;;3.96;64.80;96086.59;4684371;30;20237;-90
2022/01/25 11:58:27;;;;;;;18.85;11.15;;;4.90;78.80;;;3.97;64.68;96090.84;4684272;30;20220;-88
2022/01/25 12:00:59;;;;;;;17.77;11.25;;;4.90;78.90;;;3.98;64.67;96086.47;4699369;30;20220;-87
2022/01/25 12:03:44;;;;;;;17.10;10.77;;;4.90;78.70;;;3.97;64.70;96090.03;4698702;30;20217;-88
2022/01/25 12:06:20;;;;;;;17.85;11.93;;;4.90;78.80;;;3.96;64.80;96090.97;4685336;30;20212;-89
2022/01/25 12:09:06;;;;;;;17.60;11.52;;;4.90;78.80;;;3.99;64.89;96093.31;4698189;30;20244;-86
2022/01/25 12:11:59;;;;;;;18.33;11.35;;;4.90;78.80;;;3.96;64.75;96081.41;4670147;30;20300;-87
2022/01/25 12:14:48;;;;;;;16.00;10.80;;;4.90;78.70;;;3.95;64.72;96079.75;4699265;30;20720;-89
2022/01/25 12:17:20;;;;;;;19.10;11.65;;;4.90;78.80;;;3.98;64.80;96084.69;4698036;30;20220;-88